Indianapolis Mount Comfort, IN

8:05 PM EST on December 06, 2019 (GMT -0500)
Mount Comfort

Weather History for KMQJ - June, 2019

Change the Weather History Date:

Monday, June 10, 2019

  Actual Average (KEYE) Record (KEYE)
Temperature  
Mean Temperature 62 °F -  
Max Temperature 69 °F 75 °F 90 °F (2011)
Min Temperature 55 °F 60 °F 55 °F (1997)
Degree Days  
Heating Degree Days 3    
Growing Degree Days 12 (Base 50)    
Moisture  
Dew Point 63 °F    
Average Humidity 90    
Maximum Humidity 100    
Minimum Humidity 60    
Precipitation  
Precipitation 0.00 in - - ()
Sea Level Pressure  
Sea Level Pressure 30.03 in    
Wind  
Wind Speed 7 mph (NNW)    
Max Wind Speed 20 mph    
Max Gust Speed 30 mph    
Visibility 8 miles    
Events      
Averages and records for this station are not official NWS values.
T = Trace of Precipitation, MM = Missing Value Source: NWS Daily Summary

Daily Weather History Graph

Daily Weather History Graph

Search for Another Location

Airport or City:

Astronomy

Jun. 10, 2019 Rise Set
Actual Time 6:14 AM EDT 9:11 PM EDT
Civil Twilight 5:42 AM EDT 9:43 PM EDT
Nautical Twilight 5:01 AM EDT 10:25 PM EDT
Astronomical Twilight 4:13 AM EDT 11:12 PM EDT
Moon 2:02 PM EDT (6/10) 2:25 AM EDT (6/10)
Length of Visible Light 16h 01m
Length of Day
14h 56m
First Quarter, 55% of the Moon is Illuminated
Jun 10
First Quarter
Jun 17
Full
Jun 25
Last Quarter
Jul 2
New
Jul 9
First Quarter

Hourly Weather History & Observations

Time (EDT) Temp. Dew Point Humidity Pressure Visibility Wind Dir Wind Speed Gust Speed Precip Events Conditions
12:07 AM 68.0 °F 68.0 °F 100% 29.93 in 7.0 mi Calm Calm - N/A   Overcast
12:25 AM 68.0 °F 68.0 °F 100% 29.93 in 10.0 mi Calm Calm - N/A   Overcast
12:43 AM 68.0 °F 68.0 °F 100% 29.93 in 10.0 mi Calm Calm - N/A   Overcast
1:04 AM 68.0 °F 68.0 °F 100% 29.92 in 10.0 mi Calm Calm - N/A   Overcast
1:26 AM 68.0 °F 68.0 °F 100% 29.92 in 7.0 mi Calm Calm - N/A   Overcast
1:44 AM 68.0 °F 68.0 °F 100% 29.92 in 10.0 mi Calm Calm - N/A   Overcast
2:05 AM 68.0 °F 68.0 °F 100% 29.91 in 10.0 mi West 4.6 mph - N/A   Overcast
2:24 AM 68.0 °F 68.0 °F 100% 29.90 in 7.0 mi WNW 3.5 mph - N/A   Overcast
2:45 AM 68.0 °F 68.0 °F 100% 29.90 in 5.0 mi West 4.6 mph - N/A   Overcast
3:07 AM 68.0 °F 68.0 °F 100% 29.90 in 5.0 mi West 5.8 mph - N/A   Overcast
3:26 AM 68.0 °F 68.0 °F 100% 29.89 in 4.0 mi West 4.6 mph - N/A   Overcast
3:44 AM 68.0 °F 68.0 °F 100% 29.89 in 5.0 mi WNW 6.9 mph - N/A   Overcast
4:04 AM 68.0 °F 68.0 °F 100% 29.90 in 5.0 mi WNW 5.8 mph - N/A   Overcast
4:24 AM 68.0 °F 68.0 °F 100% 29.90 in 5.0 mi NW 10.4 mph - N/A   Overcast
4:44 AM 68.0 °F 68.0 °F 100% 29.90 in 7.0 mi NW 6.9 mph - N/A   Mostly Cloudy
5:07 AM 68.0 °F 68.0 °F 100% 29.90 in 7.0 mi NW 9.2 mph - N/A   Mostly Cloudy
5:44 AM 68.0 °F 68.0 °F 100% 29.91 in 7.0 mi NW 9.2 mph - N/A   Mostly Cloudy
6:05 AM 68.0 °F 68.0 °F 100% 29.92 in 7.0 mi NW 6.9 mph - N/A   Mostly Cloudy
6:22 AM 66.2 °F 66.2 °F 100% 29.92 in 5.0 mi NW 8.1 mph - N/A   Scattered Clouds
6:46 AM 66.2 °F 66.2 °F 100% 29.93 in 4.0 mi NW 6.9 mph - N/A   Clear
7:06 AM 66.2 °F 66.2 °F 100% 29.94 in 4.0 mi WNW 5.8 mph - N/A   Scattered Clouds
7:24 AM 66.2 °F 66.2 °F 100% 29.95 in 4.0 mi NW 6.9 mph - N/A   Scattered Clouds
7:48 AM 68.0 °F 68.0 °F 100% 29.96 in 4.0 mi NW 8.1 mph - N/A   Mostly Cloudy
8:10 AM 68.0 °F 68.0 °F 100% 29.97 in 4.0 mi NW 10.4 mph 16.1 mph N/A   Overcast
8:27 AM 68.0 °F 68.0 °F 100% 29.97 in 4.0 mi NW 9.2 mph - N/A   Mostly Cloudy
8:45 AM 68.0 °F 68.0 °F 100% 29.98 in 5.0 mi NNW 13.8 mph 20.7 mph N/A   Overcast
9:06 AM 68.0 °F 68.0 °F 100% 29.98 in 5.0 mi NNW 13.8 mph - N/A   Overcast
9:26 AM 69.8 °F 69.8 °F 100% 29.98 in 5.0 mi NNW 15.0 mph - N/A   Overcast
9:42 AM 68.0 °F 68.0 °F 100% 29.99 in 5.0 mi NNW 13.8 mph - N/A   Overcast
10:08 AM 68.0 °F 68.0 °F 100% 29.99 in 4.0 mi NNW 10.4 mph - N/A   Overcast
10:32 AM 66.2 °F 66.2 °F 100% 30.00 in 2.0 mi NW 10.4 mph - N/A   Overcast
10:44 AM 66.2 °F 66.2 °F 100% 30.01 in 1.5 mi WNW 16.1 mph - N/A   Overcast
11:06 AM 64.4 °F 64.4 °F 100% 30.02 in 5.0 mi NW 12.7 mph - N/A   Overcast
11:26 AM 62.6 °F 62.6 °F 100% 30.04 in 10.0 mi NNW 17.3 mph 27.6 mph N/A   Overcast
11:43 AM 64.4 °F 64.4 °F 100% 30.04 in 10.0 mi NNW 17.3 mph 26.5 mph N/A   Overcast
12:02 PM 64.4 °F 64.4 °F 100% 30.05 in 10.0 mi NNW 18.4 mph 24.2 mph N/A   Overcast
12:24 PM 62.6 °F 62.6 °F 100% 30.06 in 10.0 mi NNW 18.4 mph 23.0 mph N/A   Overcast
12:44 PM 62.6 °F 62.6 °F 100% 30.07 in 10.0 mi NNW 12.7 mph 18.4 mph N/A   Overcast
1:04 PM 62.6 °F 62.6 °F 100% 30.07 in 10.0 mi NW 17.3 mph 23.0 mph N/A   Overcast
1:23 PM 62.6 °F 62.6 °F 100% 30.07 in 10.0 mi NNW 17.3 mph - N/A   Overcast
1:44 PM 62.6 °F 60.8 °F 94% 30.08 in 10.0 mi NW 12.7 mph 21.9 mph N/A   Overcast
2:03 PM 62.6 °F 60.8 °F 94% 30.08 in 10.0 mi NNW 12.7 mph 21.9 mph N/A   Overcast
2:24 PM 64.4 °F 60.8 °F 88% 30.09 in 10.0 mi NNW 17.3 mph 24.2 mph N/A   Overcast
2:46 PM 64.4 °F 62.6 °F 94% 30.09 in 10.0 mi NNW 12.7 mph 17.3 mph N/A   Overcast
3:31 PM 68.0 °F 60.8 °F 78% 30.09 in 10.0 mi NNW 18.4 mph 26.5 mph N/A   Scattered Clouds
3:46 PM 68.0 °F 60.8 °F 78% 30.09 in 10.0 mi NNW 18.4 mph 24.2 mph N/A   Scattered Clouds
4:08 PM 69.8 °F 59.0 °F 68% 30.10 in 10.0 mi NW 18.4 mph 28.8 mph N/A   Scattered Clouds
4:29 PM 69.8 °F 59.0 °F 68% 30.10 in 10.0 mi NW 13.8 mph 29.9 mph N/A   Scattered Clouds
4:48 PM 69.8 °F 57.2 °F 64% 30.10 in 10.0 mi NNW 19.6 mph 25.3 mph N/A   Clear
5:06 PM 69.8 °F 57.2 °F 64% 30.11 in 10.0 mi NNW 13.8 mph 23.0 mph N/A   Clear
5:24 PM 69.8 °F 55.4 °F 60% 30.11 in 10.0 mi NNW 17.3 mph 26.5 mph N/A   Clear
5:44 PM 69.8 °F 57.2 °F 64% 30.11 in 10.0 mi NNW 16.1 mph - N/A   Clear
6:10 PM 69.8 °F 55.4 °F 60% 30.11 in 10.0 mi NNW 15.0 mph 21.9 mph N/A   Clear
6:24 PM 69.8 °F 57.2 °F 64% 30.12 in 10.0 mi NNW 13.8 mph 19.6 mph N/A   Clear
6:47 PM 69.8 °F 57.2 °F 64% 30.12 in 10.0 mi NNW 13.8 mph - N/A   Clear
7:07 PM 69.8 °F 57.2 °F 64% 30.12 in 10.0 mi North 15.0 mph - N/A   Clear
7:26 PM 68.0 °F 57.2 °F 68% 30.12 in 10.0 mi North 13.8 mph - N/A   Clear
7:42 PM 68.0 °F 57.2 °F 68% 30.13 in 10.0 mi North 12.7 mph 16.1 mph N/A   Clear
8:04 PM 68.0 °F 57.2 °F 68% 30.14 in 10.0 mi North 8.1 mph - N/A   Clear
8:23 PM 66.2 °F 57.2 °F 73% 30.14 in 10.0 mi North 9.2 mph - N/A   Clear
8:43 PM 66.2 °F 55.4 °F 68% 30.15 in 10.0 mi North 12.7 mph 16.1 mph N/A   Clear
9:04 PM 64.4 °F 53.6 °F 68% 30.16 in 10.0 mi NNE 9.2 mph - N/A   Clear
9:27 PM 60.8 °F 53.6 °F 77% 30.16 in 10.0 mi NNE 6.9 mph - N/A   Clear
9:48 PM 60.8 °F 53.6 °F 77% 30.17 in 10.0 mi NNE 5.8 mph - N/A   Clear
10:06 PM 59.0 °F 53.6 °F 82% 30.18 in 10.0 mi NNE 3.5 mph - N/A   Clear
10:28 PM 59.0 °F 53.6 °F 82% 30.19 in 10.0 mi North 3.5 mph - N/A   Clear
10:48 PM 57.2 °F 53.6 °F 88% 30.19 in 10.0 mi North 4.6 mph - N/A   Clear
11:05 PM 57.2 °F 53.6 °F 88% 30.19 in 10.0 mi NNE 3.5 mph - N/A   Clear
11:23 PM 55.4 °F 55.4 °F 100% 30.20 in 10.0 mi Calm Calm - N/A   Clear
11:46 PM 55.4 °F 53.6 °F 94% 30.20 in 10.0 mi Calm Calm - N/A   Clear